createdAt,value
2018-11-20T00:02:45.654Z,30.53
2018-11-20T00:05:41.479Z,32.97
2018-11-20T00:08:29.817Z,30.83
2018-11-20T00:11:17.213Z,30.73
2018-11-20T00:14:22.087Z,32.57
2018-11-20T00:17:03.196Z,29.57
2018-11-20T00:20:01.751Z,35.57
2018-11-20T00:22:50.568Z,29.57
2018-11-20T00:25:43.373Z,37.47
2018-11-20T00:28:42.739Z,35.50
2018-11-20T00:31:25.885Z,41.63
2018-11-20T00:34:14.609Z,36.27
2018-11-20T00:37:14.065Z,36.50
2018-11-20T00:40:02.636Z,35.87
2018-11-20T00:42:49.027Z,42.37
2018-11-20T00:45:43.334Z,58.50
2018-11-20T00:48:45.768Z,53.83
2018-11-20T00:51:32.746Z,59.53
2018-11-20T00:56:29.203Z,73.10
2018-11-20T00:59:21.592Z,61.77
2018-11-20T01:02:23.455Z,166.80
2018-11-20T01:05:12.994Z,71.00
2018-11-20T01:08:01.318Z,129.90
2018-11-20T01:11:05.640Z,213.50
2018-11-20T01:14:00.906Z,256.90
2018-11-20T01:16:50.115Z,212.30
2018-11-20T01:19:57.656Z,118.50
2018-11-20T01:22:45.222Z,142.03
2018-11-20T01:25:43.283Z,114.13
2018-11-20T01:28:41.042Z,204.90
2018-11-20T01:31:28.401Z,104.17
2018-11-20T01:34:23.526Z,75.47
2018-11-20T01:37:15.341Z,160.37
2018-11-20T01:40:16.466Z,92.50
2018-11-20T01:42:59.124Z,73.10
2018-11-20T01:45:44.687Z,265.50
2018-11-20T01:48:39.689Z,284.23
2018-11-20T01:51:28.333Z,279.37
2018-11-20T01:54:26.055Z,252.00
2018-11-20T01:57:13.610Z,96.27
2018-11-20T02:00:08.576Z,103.17
2018-11-20T02:03:06.161Z,77.67
2018-11-20T02:05:54.021Z,153.83
2018-11-20T02:08:41.926Z,83.37
2018-11-20T02:11:29.743Z,132.63
2018-11-20T02:14:23.236Z,81.43
2018-11-20T02:17:21.381Z,112.53
2018-11-20T02:20:09.733Z,106.60
2018-11-20T02:23:01.594Z,77.50
2018-11-20T02:25:49.252Z,117.07
2018-11-20T02:28:43.891Z,116.87
2018-11-20T02:31:31.523Z,86.97
2018-11-20T02:34:16.087Z,67.87
2018-11-20T02:37:08.157Z,113.43
2018-11-20T02:40:06.377Z,66.80
2018-11-20T02:43:01.549Z,79.90
2018-11-20T02:45:53.705Z,69.53
2018-11-20T02:48:42.805Z,107.53
2018-11-20T02:51:34.519Z,219.33
2018-11-20T02:54:22.681Z,89.20
2018-11-20T02:57:10.063Z,67.90
2018-11-20T02:59:57.991Z,69.67
2018-11-20T03:02:46.091Z,139.47
2018-11-20T03:05:47.544Z,94.07
2018-11-20T03:08:51.556Z,99.33
2018-11-20T03:11:50.011Z,140.73
2018-11-20T03:14:43.951Z,263.27
2018-11-20T03:17:39.294Z,84.20
2018-11-20T03:20:28.084Z,110.10
2018-11-20T03:23:16.033Z,86.97
2018-11-20T03:26:08.427Z,96.90
2018-11-20T03:29:02.619Z,88.97
2018-11-20T03:31:50.580Z,120.93
2018-11-20T03:34:45.791Z,228.00
2018-11-20T03:37:40.592Z,176.10
2018-11-20T03:40:33.444Z,110.07
2018-11-20T03:43:25.393Z,152.27
2018-11-20T03:46:23.606Z,250.33
2018-11-20T03:49:24.830Z,82.73
2018-11-20T03:52:10.013Z,79.13
2018-11-20T03:55:02.439Z,110.23
2018-11-20T03:57:50.511Z,135.23
2018-11-20T04:00:39.709Z,161.80
2018-11-20T04:03:26.550Z,124.13
2018-11-20T04:06:34.254Z,76.07
2018-11-20T04:09:26.702Z,71.80
2018-11-20T04:12:08.166Z,60.80
2018-11-20T04:15:09.017Z,72.13
2018-11-20T04:18:04.577Z,56.23
2018-11-20T04:20:55.755Z,56.67
2018-11-20T04:23:41.927Z,61.40
2018-11-20T04:26:29.875Z,58.07
2018-11-20T04:29:21.811Z,60.63
2018-11-20T04:32:15.068Z,60.67
2018-11-20T04:35:02.424Z,69.73
2018-11-20T04:37:50.351Z,61.50
2018-11-20T04:40:54.947Z,60.50
2018-11-20T04:43:42.506Z,57.00
2018-11-20T04:46:30.339Z,55.97
2018-11-20T04:49:22.412Z,58.27
2018-11-20T04:52:11.558Z,55.50
2018-11-20T04:55:13.301Z,55.33
2018-11-20T04:58:01.426Z,57.77
2018-11-20T05:00:51.879Z,51.53
2018-11-20T05:03:47.654Z,49.47
2018-11-20T05:06:39.839Z,48.17
2018-11-20T05:09:28.676Z,46.37
2018-11-20T05:12:16.676Z,53.13
2018-11-20T05:15:04.638Z,49.73
2018-11-20T05:17:56.809Z,49.03
2018-11-20T05:20:44.937Z,47.73
2018-11-20T05:23:23.291Z,47.77
2018-11-20T05:26:11.238Z,45.97
2018-11-20T05:28:59.492Z,44.07
2018-11-20T05:31:52.699Z,45.13
2018-11-20T05:34:40.279Z,49.30
2018-11-20T05:37:31.526Z,42.00
2018-11-20T05:40:19.465Z,48.30
2018-11-20T05:43:09.121Z,46.07
2018-11-20T05:46:02.483Z,60.97
2018-11-20T05:48:50.538Z,45.63
2018-11-20T05:51:42.050Z,46.90
2018-11-20T05:54:31.743Z,40.17
2018-11-20T05:57:19.726Z,45.17
2018-11-20T06:00:07.708Z,45.43
2018-11-20T06:02:56.727Z,45.10
2018-11-20T06:05:35.731Z,46.07
2018-11-20T06:08:27.929Z,47.43
2018-11-20T06:11:35.693Z,47.23
2018-11-20T06:14:30.872Z,47.17
2018-11-20T06:17:23.182Z,44.97
2018-11-20T06:20:21.336Z,46.33
2018-11-20T06:23:09.020Z,48.70
2018-11-20T06:26:04.156Z,45.83
2018-11-20T06:28:53.500Z,46.10
2018-11-20T06:31:41.388Z,45.13
2018-11-20T06:34:22.502Z,40.93
2018-11-20T06:37:11.690Z,44.70
2018-11-20T06:40:09.975Z,39.63
2018-11-20T06:43:11.256Z,37.40
2018-11-20T06:45:58.998Z,31.77
2018-11-20T06:48:55.231Z,31.40
2018-11-20T06:51:48.204Z,34.07
2018-11-20T06:54:37.952Z,31.80
2018-11-20T06:57:33.515Z,29.90
2018-11-20T07:00:28.842Z,31.00
2018-11-20T07:03:37.100Z,29.17
2018-11-20T07:06:32.898Z,27.23
2018-11-20T07:09:37.607Z,27.17
2018-11-20T07:12:39.061Z,30.43
2018-11-20T07:15:34.045Z,26.73
2018-11-20T07:18:22.109Z,26.37
2018-11-20T07:21:01.069Z,30.03
2018-11-20T07:23:48.845Z,25.17
2018-11-20T07:26:46.960Z,24.80
2018-11-20T07:29:45.553Z,23.73
2018-11-20T07:32:40.740Z,22.37
2018-11-20T07:35:28.579Z,24.60
2018-11-20T07:38:29.703Z,23.03
2018-11-20T07:41:11.885Z,21.00
2018-11-20T07:44:18.320Z,21.83
2018-11-20T07:47:10.410Z,22.10
2018-11-20T07:49:49.630Z,20.00
2018-11-20T07:52:47.234Z,20.10
2018-11-20T07:55:39.597Z,20.50
2018-11-20T07:58:40.980Z,22.37
2018-11-20T08:01:28.157Z,20.63
2018-11-20T08:04:26.604Z,21.43
2018-11-20T08:07:23.194Z,19.50
2018-11-20T08:10:27.395Z,21.97
2018-11-20T08:13:22.413Z,22.77
2018-11-20T08:16:23.913Z,22.73
2018-11-20T08:19:27.912Z,21.17
2018-11-20T08:22:15.823Z,24.33
2018-11-20T08:25:07.976Z,22.07
2018-11-20T08:28:12.428Z,22.30
2018-11-20T08:31:15.414Z,23.93
2018-11-20T08:34:03.206Z,23.00
2018-11-20T08:37:07.669Z,23.37
2018-11-20T08:39:55.467Z,23.00
2018-11-20T08:42:41.221Z,23.17
2018-11-20T08:45:29.007Z,24.63
2018-11-20T08:48:18.151Z,24.73
2018-11-20T08:51:16.303Z,23.57
2018-11-20T08:53:59.596Z,21.70
2018-11-20T08:56:57.892Z,23.90
2018-11-20T09:00:05.334Z,23.63
2018-11-20T09:02:59.055Z,24.37
2018-11-20T09:06:03.284Z,20.83
2018-11-20T09:09:07.856Z,23.70
2018-11-20T09:12:00.435Z,24.23
2018-11-20T09:14:49.720Z,25.80
2018-11-20T09:17:38.848Z,27.10
2018-11-20T09:20:43.488Z,28.50
2018-11-20T09:23:47.710Z,28.57
2018-11-20T09:26:47.465Z,33.40
2018-11-20T09:29:42.107Z,30.47
2018-11-20T09:32:29.896Z,29.10
2018-11-20T09:35:17.618Z,31.77
2018-11-20T09:38:12.787Z,31.50
2018-11-20T09:41:06.586Z,34.10
2018-11-20T09:44:34.398Z,36.60
2018-11-20T09:47:26.443Z,37.43
2018-11-20T09:50:15.653Z,32.97
2018-11-20T09:53:07.715Z,34.63
2018-11-20T09:55:51.726Z,34.10
2018-11-20T09:58:46.547Z,32.30
2018-11-20T10:01:35.169Z,31.67
2018-11-20T10:04:24.616Z,30.77
2018-11-20T10:07:07.061Z,29.40
2018-11-20T10:09:55.622Z,31.70
2018-11-20T10:12:57.472Z,32.20
2018-11-20T10:15:50.210Z,40.10
2018-11-20T10:18:45.705Z,41.13
2018-11-20T10:21:43.875Z,40.80
2018-11-20T10:24:31.407Z,42.73
2018-11-20T10:27:18.689Z,46.20
2018-11-20T10:30:23.677Z,51.60
2018-11-20T10:33:12.844Z,45.97
2018-11-20T10:35:56.926Z,51.93
2018-11-20T10:39:01.100Z,50.30
2018-11-20T10:42:04.878Z,45.70
2018-11-20T10:45:00.258Z,45.90
2018-11-20T10:48:02.085Z,44.27
2018-11-20T10:50:49.978Z,45.73
2018-11-20T10:53:42.214Z,51.97
2018-11-20T10:56:43.469Z,47.13
2018-11-20T10:59:31.640Z,46.30
2018-11-20T11:02:19.979Z,48.00
2018-11-20T11:05:08.006Z,51.67
2018-11-20T11:07:55.975Z,44.97
2018-11-20T11:10:37.553Z,46.97
2018-11-20T11:13:25.428Z,42.27
2018-11-20T11:16:12.861Z,41.30
2018-11-20T11:19:00.504Z,40.27
2018-11-20T11:22:04.920Z,40.90
2018-11-20T11:24:54.222Z,45.53
2018-11-20T11:27:43.435Z,41.63
2018-11-20T11:30:35.670Z,43.10
2018-11-20T11:33:31.074Z,42.10
2018-11-20T11:36:18.636Z,47.60
2018-11-20T11:39:10.725Z,43.10
2018-11-20T11:41:56.412Z,42.27
2018-11-20T11:44:54.535Z,42.40
2018-11-20T11:47:49.714Z,48.27
2018-11-20T11:50:51.010Z,45.70
2018-11-20T11:53:48.963Z,49.50
2018-11-20T11:56:44.298Z,43.07
2018-11-20T11:59:31.879Z,46.23
2018-11-20T12:05:11.523Z,57.20
2018-11-20T12:08:04.100Z,62.20
2018-11-20T12:10:52.567Z,65.67
2018-11-20T12:13:53.764Z,66.70
2018-11-20T12:16:58.207Z,87.03
2018-11-20T12:19:50.316Z,71.10
2018-11-20T12:22:41.921Z,73.63
2018-11-20T12:25:34.275Z,73.17
2018-11-20T12:28:18.036Z,66.70
2018-11-20T12:31:06.222Z,59.80
2018-11-20T12:33:55.907Z,64.20
2018-11-20T12:36:53.742Z,63.53
2018-11-20T12:39:43.067Z,51.03
2018-11-20T12:42:38.638Z,42.90
2018-11-20T12:45:26.128Z,54.00
2018-11-20T12:48:16.306Z,45.77
2018-11-20T12:51:05.490Z,47.93
2018-11-20T12:53:47.828Z,80.63
2018-11-20T12:56:40.121Z,59.23
2018-11-20T12:59:34.213Z,67.43
2018-11-20T13:02:31.263Z,63.00
2018-11-20T13:05:32.473Z,74.70
2018-11-20T13:08:20.850Z,90.07
2018-11-20T13:11:13.056Z,70.77
2018-11-20T13:14:08.079Z,79.43
2018-11-20T13:16:56.137Z,75.50
2018-11-20T13:19:44.221Z,64.70
2018-11-20T13:22:33.560Z,59.70
2018-11-20T13:25:20.081Z,72.83
2018-11-20T13:28:09.609Z,80.97
2018-11-20T13:30:59.065Z,90.97
2018-11-20T13:33:48.001Z,67.63
2018-11-20T13:36:35.373Z,61.10
2018-11-20T13:39:32.991Z,69.77
2018-11-20T13:42:16.624Z,59.37
2018-11-20T13:45:18.596Z,55.73
2018-11-20T13:48:21.547Z,64.03
2018-11-20T13:51:11.795Z,59.53
2018-11-20T13:54:08.254Z,47.53
2018-11-20T13:56:56.277Z,45.50
2018-11-20T13:59:51.875Z,48.43
2018-11-20T14:02:44.751Z,49.07
2018-11-20T14:05:32.756Z,48.77
2018-11-20T14:08:26.665Z,54.57
2018-11-20T14:11:17.427Z,51.57
2018-11-20T14:14:05.843Z,59.33
2018-11-20T14:17:07.635Z,56.60
2018-11-20T14:19:49.756Z,54.07
2018-11-20T14:22:39.141Z,58.73
2018-11-20T14:25:44.624Z,63.43
2018-11-20T14:28:40.420Z,66.30
2018-11-20T14:31:38.451Z,57.33
2018-11-20T14:34:34.319Z,54.23
2018-11-20T14:37:26.035Z,60.50
2018-11-20T14:40:30.887Z,76.17
2018-11-20T14:43:32.863Z,81.03
2018-11-20T14:46:30.249Z,78.40
2018-11-20T14:49:32.672Z,62.67
2018-11-20T14:52:31.798Z,72.77
2018-11-20T14:55:24.363Z,92.80
2018-11-20T14:58:02.774Z,61.03
2018-11-20T15:00:50.757Z,61.83
2018-11-20T15:03:43.135Z,71.33
2018-11-20T15:06:33.119Z,62.27
2018-11-20T15:09:34.952Z,55.43
2018-11-20T15:12:26.048Z,59.43
2018-11-20T15:15:16.358Z,58.93
2018-11-20T15:18:05.209Z,66.37
2018-11-20T15:20:57.551Z,86.47
2018-11-20T15:23:53.191Z,70.70
2018-11-20T15:26:48.672Z,84.70
2018-11-20T15:29:44.525Z,64.27
2018-11-20T15:32:42.417Z,77.50
2018-11-20T15:35:29.789Z,56.10
2018-11-20T15:38:15.692Z,57.97
2018-11-20T15:41:05.361Z,65.93
2018-11-20T15:43:55.111Z,44.10
2018-11-20T15:46:43.356Z,51.87
2018-11-20T15:49:35.015Z,50.90
2018-11-20T15:52:19.569Z,45.77
2018-11-20T15:55:16.132Z,39.00
2018-11-20T15:58:03.386Z,46.43
2018-11-20T16:00:54.748Z,45.73
2018-11-20T16:03:59.727Z,38.13
2018-11-20T16:07:05.788Z,39.20
2018-11-20T16:09:54.125Z,36.03
2018-11-20T16:12:55.554Z,43.77
2018-11-20T16:15:57.490Z,43.17
2018-11-20T16:18:41.069Z,41.00
2018-11-20T16:21:45.626Z,38.37
2018-11-20T16:24:54.431Z,45.10
2018-11-20T16:27:56.440Z,36.87
2018-11-20T16:30:49.961Z,44.10
2018-11-20T16:33:33.244Z,44.03
2018-11-20T16:36:21.668Z,35.00
2018-11-20T16:39:10.235Z,36.67
2018-11-20T16:42:08.885Z,30.87
2018-11-20T16:44:57.150Z,41.83
2018-11-20T16:48:02.244Z,38.70
2018-11-20T16:51:03.657Z,41.30
2018-11-20T16:53:56.056Z,44.93
2018-11-20T16:56:54.781Z,44.67
2018-11-20T16:59:56.347Z,40.30
2018-11-20T17:03:04.298Z,43.00
2018-11-20T17:05:59.814Z,41.47
2018-11-20T17:09:01.623Z,43.10
2018-11-20T17:11:50.005Z,43.50
2018-11-20T17:14:40.056Z,51.53
2018-11-20T17:17:29.724Z,82.30
2018-11-20T17:20:18.124Z,73.80
2018-11-20T17:23:22.855Z,78.40
2018-11-20T17:26:15.774Z,66.57
2018-11-20T17:29:04.598Z,63.53
2018-11-20T17:31:53.718Z,57.37
2018-11-20T17:34:42.259Z,45.17
2018-11-20T17:37:40.722Z,45.37
2018-11-20T17:40:37.850Z,41.80
2018-11-20T17:43:30.670Z,37.73
2018-11-20T17:46:18.728Z,39.43
2018-11-20T17:49:14.440Z,48.70
2018-11-20T17:52:07.143Z,45.60
2018-11-20T17:54:52.273Z,40.87
2018-11-20T17:57:34.581Z,48.10
2018-11-20T18:00:21.152Z,39.60
2018-11-20T18:03:09.484Z,44.90
2018-11-20T18:06:10.977Z,41.57
2018-11-20T18:09:03.799Z,41.80
2018-11-20T18:11:52.093Z,41.97
2018-11-20T18:15:00.018Z,42.90
2018-11-20T18:17:49.030Z,48.97
2018-11-20T18:20:38.683Z,47.30
2018-11-20T18:23:28.478Z,41.20
2018-11-20T18:26:26.842Z,43.10
2018-11-20T18:29:15.503Z,30.03
2018-11-20T18:32:14.309Z,33.17
2018-11-20T18:35:02.345Z,40.17
2018-11-20T18:37:52.163Z,42.30
2018-11-20T18:40:45.634Z,38.30
2018-11-20T18:43:38.225Z,38.20
2018-11-20T18:46:28.142Z,35.53
2018-11-20T18:49:23.762Z,34.97
2018-11-20T18:52:21.988Z,36.63
2018-11-20T18:55:23.692Z,33.97
2018-11-20T18:58:12.026Z,30.30
2018-11-20T19:01:07.816Z,31.40
2018-11-20T19:03:55.969Z,35.57
2018-11-20T19:06:50.744Z,33.63
2018-11-20T19:09:40.992Z,35.20
2018-11-20T19:12:43.586Z,36.10
2018-11-20T19:15:42.535Z,34.03
2018-11-20T19:18:32.216Z,36.33
2018-11-20T19:21:11.490Z,31.80
2018-11-20T19:24:13.069Z,37.80
2018-11-20T19:27:05.620Z,40.97
2018-11-20T19:30:04.376Z,47.87
2018-11-20T19:32:51.230Z,48.97
2018-11-20T19:35:52.582Z,51.20
2018-11-20T19:38:57.774Z,44.07
2018-11-20T19:41:46.174Z,40.70
2018-11-20T19:44:47.695Z,44.97
2018-11-20T19:47:35.859Z,38.53
2018-11-20T19:50:26.889Z,41.43
2018-11-20T19:53:15.358Z,36.00
2018-11-20T19:56:03.942Z,35.43
2018-11-20T19:58:59.813Z,34.63
2018-11-20T20:01:47.700Z,31.20
2018-11-20T20:04:39.462Z,32.40
2018-11-20T20:07:41.180Z,36.07
2018-11-20T20:10:43.107Z,42.93
2018-11-20T20:13:33.969Z,33.40
2018-11-20T20:16:16.877Z,32.30
2018-11-20T20:19:08.146Z,40.20
2018-11-20T20:21:56.400Z,34.80
2018-11-20T20:24:44.794Z,35.63
2018-11-20T20:27:37.156Z,38.90
2018-11-20T20:30:27.192Z,39.73
2018-11-20T20:33:17.183Z,41.67
2018-11-20T20:36:13.047Z,32.70
2018-11-20T20:39:01.211Z,43.63
2018-11-20T20:41:59.978Z,37.40
2018-11-20T20:44:47.833Z,36.27
2018-11-20T20:47:43.516Z,37.87
2018-11-20T20:50:42.206Z,38.77
2018-11-20T20:53:35.753Z,36.43
2018-11-20T20:56:26.035Z,56.93
2018-11-20T20:59:36.047Z,45.20
2018-11-20T21:02:24.881Z,42.43
2018-11-20T21:05:29.245Z,41.70
2018-11-20T21:08:24.561Z,40.53
2018-11-20T21:11:26.468Z,38.77
2018-11-20T21:14:14.936Z,50.27
2018-11-20T21:17:03.407Z,53.67
2018-11-20T21:19:51.740Z,48.23
2018-11-20T21:22:40.011Z,48.57
2018-11-20T21:25:48.103Z,50.13
2018-11-20T21:28:49.857Z,45.60
2018-11-20T21:31:37.897Z,43.43
2018-11-20T21:34:27.728Z,43.20
2018-11-20T21:37:26.138Z,35.23
2018-11-20T21:40:14.878Z,42.70
2018-11-20T21:43:12.953Z,37.27
2018-11-20T21:46:02.943Z,36.87
2018-11-20T21:48:55.038Z,35.47
2018-11-20T21:51:54.701Z,31.30
2018-11-20T21:54:48.787Z,26.57
2018-11-20T21:57:32.632Z,31.30
2018-11-20T22:00:33.527Z,28.87
2018-11-20T22:03:29.294Z,35.60
2018-11-20T22:06:16.097Z,33.37
2018-11-20T22:09:06.171Z,32.17
2018-11-20T22:11:54.552Z,31.13
2018-11-20T22:14:47.146Z,28.43
2018-11-20T22:17:45.996Z,28.87
2018-11-20T22:20:35.771Z,25.20
2018-11-20T22:23:24.021Z,27.60
2018-11-20T22:26:09.557Z,32.97
2018-11-20T22:28:59.030Z,27.03
2018-11-20T22:31:57.663Z,38.90
2018-11-20T22:35:02.273Z,25.77
2018-11-20T22:37:57.563Z,34.33
2018-11-20T22:40:42.381Z,38.97
2018-11-20T22:43:30.675Z,42.47
2018-11-20T22:46:18.248Z,35.77
2018-11-20T22:49:10.908Z,32.23
2018-11-20T22:52:15.659Z,41.20
2018-11-20T22:55:03.850Z,30.47
2018-11-20T22:57:58.480Z,25.40
2018-11-20T23:00:56.921Z,24.83
2018-11-20T23:03:49.067Z,31.90
2018-11-20T23:06:35.291Z,32.83
2018-11-20T23:09:07.184Z,24.10
2018-11-20T23:11:37.389Z,24.67
2018-11-20T23:14:07.653Z,27.50
2018-11-20T23:16:37.694Z,36.37
2018-11-20T23:19:07.620Z,33.03
2018-11-20T23:21:37.943Z,45.83
2018-11-20T23:24:08.154Z,31.97
2018-11-20T23:26:41.458Z,23.27
2018-11-20T23:29:08.907Z,25.40
2018-11-20T23:31:39.246Z,28.80
2018-11-20T23:34:09.381Z,23.60
2018-11-20T23:36:39.590Z,22.97
2018-11-20T23:39:10.807Z,24.00
2018-11-20T23:41:40.933Z,26.07
2018-11-20T23:44:10.772Z,26.13
2018-11-20T23:46:40.512Z,24.60
2018-11-20T23:49:15.229Z,23.43
2018-11-20T23:51:41.078Z,34.60
2018-11-20T23:54:11.058Z,28.60
2018-11-20T23:56:41.007Z,32.97
2018-11-20T23:59:11.406Z,32.37
